New Cassel, New York
Current Conditions -  °F | °C
As of 6:53 AM on Monday 22 Dec 2014 (Local Time) from KFRG Reporting Station
Overcast Overcast  
Wind Chill: 33°   Ceiling: 800
Heat Index: 38°   Visibility: 10mi
Dew Point: 34°   Wind: 7mph
Humidity: 86%   Direction: 50°NE
Pressure: 30.31"   Gusts: NA
Location:  40.76°N, 73.57°W
Report Text: KFRG 221153Z 05006KT 10SM OVC008 03/01 A3031 RMK AO2 SLP264 T00330011 10033 20022 55002
Loading
Personal Weather Stations






























Interactive Weather Map New forecast layout! Learn more

10-Day Weather Forecast

Advertisements
Track Severe Weather on mobile